Time,TemperatureF,DewpointF,PressureIn,WindDirection,WindDirectionDegrees,WindSpeedMPH,WindSpeedGustMPH,Humidity,HourlyPrecipIn,Conditions,Clouds,dailyrainin,SoftwareType,DateUTC
2013-03-21 00:00:00,47.7,45.2,30.05,NNE,15,0.0,0.0,91,0.00,RA,,0.00,WeatherDisplay:10.37,2013-03-20 23:00:00,
2013-03-21 00:05:00,47.9,45.1,30.05,East,86,0.0,0.0,90,0.00,RA,,0.00,WeatherDisplay:10.37,2013-03-20 23:05:00,
2013-03-21 00:07:00,47.9,45.1,30.05,East,92,0.0,0.0,90,0.00,RA,,0.00,WeatherDisplay:10.37,2013-03-20 23:07:00,
2013-03-21 00:10:00,47.9,45.1,30.05,East,92,0.0,0.0,90,0.00,RA,,0.00,WeatherDisplay:10.37,2013-03-20 23:10:00,
2013-03-21 00:15:00,47.9,45.1,30.05,East,92,0.0,0.0,90,0.00,RA,,0.00,WeatherDisplay:10.37,2013-03-20 23:15:00,
2013-03-21 00:39:00,47.1,44.9,30.06,SW,219,2.0,0.0,92,0.00,RA,,0.00,WeatherDisplay:10.37,2013-03-20 23:39:00,
2013-03-21 00:44:00,47.1,44.9,30.06,SW,221,6.9,6.9,92,0.00,CLR,,0.00,WeatherDisplay:10.37,2013-03-20 23:44:00,
2013-03-21 00:49:00,47.1,44.9,30.06,South,186,3.5,3.5,92,0.00,CLR,,0.00,WeatherDisplay:10.37,2013-03-20 23:49:00,
2013-03-21 00:54:00,47.1,44.9,30.06,South,186,3.5,3.5,92,0.00,CLR,,0.00,WeatherDisplay:10.37,2013-03-20 23:54:00,
2013-03-21 00:59:00,47.1,44.9,30.06,South,186,3.5,3.5,92,0.00,CLR,,0.00,WeatherDisplay:10.37,2013-03-20 23:59:00,
2013-03-21 01:04:00,47.3,45.1,30.07,SW,226,2.3,2.3,92,0.00,CLR,,0.00,WeatherDisplay:10.37,2013-03-21 00:04:00,
2013-03-21 01:09:00,47.4,45.2,30.07,South,181,3.5,3.5,92,0.00,CLR,,0.00,WeatherDisplay:10.37,2013-03-21 00:09:00,
2013-03-21 01:14:00,47.5,45.3,30.07,South,188,4.6,4.6,92,0.00,CLR,,0.00,WeatherDisplay:10.37,2013-03-21 00:14:00,
2013-03-21 01:19:00,47.4,45.2,30.07,South,181,3.5,3.5,92,0.00,CLR,,0.00,WeatherDisplay:10.37,2013-03-21 00:19:00,
2013-03-21 01:24:00,47.8,45.6,30.07,SSW,193,3.5,3.5,92,0.00,CLR,,0.00,WeatherDisplay:10.37,2013-03-21 00:24:00,
2013-03-21 01:29:00,48.0,45.8,30.07,South,181,4.0,4.0,92,0.00,CLR,,0.00,WeatherDisplay:10.37,2013-03-21 00:29:00,
2013-03-21 01:34:00,48.3,45.8,30.07,South,184,3.5,3.5,91,0.00,CLR,,0.00,WeatherDisplay:10.37,2013-03-21 00:34:00,
2013-03-21 01:39:00,48.4,45.6,30.07,SSW,201,2.3,2.3,90,0.00,CLR,,0.00,WeatherDisplay:10.37,2013-03-21 00:39:00,
2013-03-21 01:44:00,48.7,45.6,30.07,SSE,164,1.1,1.1,89,0.00,CLR,,0.00,WeatherDisplay:10.37,2013-03-21 00:44:00,
2013-03-21 01:49:00,47.4,45.2,30.07,South,181,3.5,3.5,92,0.00,CLR,,0.00,WeatherDisplay:10.37,2013-03-21 00:49:00,
2013-03-21 01:54:00,48.7,45.6,30.07,SSE,163,0.0,0.0,89,0.00,CLR,,0.00,WeatherDisplay:10.37,2013-03-21 00:54:00,
2013-03-21 01:59:00,48.4,45.3,30.07,NNE,15,2.3,2.3,89,0.00,CLR,,0.00,WeatherDisplay:10.37,2013-03-21 00:59:00,
2013-03-21 02:04:00,47.4,45.2,30.07,South,174,3.5,4.0,92,0.00,CLR,,0.00,WeatherDisplay:10.37,2013-03-21 01:04:00,
2013-03-21 02:09:00,47.7,44.9,30.07,NE,39,4.0,4.0,90,0.00,,,0.00,WeatherDisplay:10.37,2013-03-21 01:09:00,
2013-03-21 02:14:00,47.4,45.2,30.07,South,174,3.5,4.0,92,0.00,CLR,,0.00,WeatherDisplay:10.37,2013-03-21 01:14:00,
2013-03-21 02:19:00,47.4,45.2,30.07,South,174,3.5,4.0,92,0.00,CLR,,0.00,WeatherDisplay:10.37,2013-03-21 01:19:00,
2013-03-21 02:24:00,47.4,45.2,30.07,South,174,3.5,4.0,92,0.00,CLR,,0.00,WeatherDisplay:10.37,2013-03-21 01:24:00,
2013-03-21 02:29:00,46.8,43.7,30.06,NNE,21,1.1,1.1,89,0.00,,,0.00,WeatherDisplay:10.37,2013-03-21 01:29:00,
2013-03-21 02:34:00,47.2,43.5,30.06,ENE,78,0.0,0.0,87,0.00,,,0.00,WeatherDisplay:10.37,2013-03-21 01:34:00,
2013-03-21 02:39:00,47.1,43.7,30.06,ENE,77,0.0,0.0,88,0.00,,,0.00,WeatherDisplay:10.37,2013-03-21 01:39:00,
2013-03-21 02:44:00,47.4,45.2,30.07,South,174,3.5,4.0,92,0.00,CLR,,0.00,WeatherDisplay:10.37,2013-03-21 01:44:00,
2013-03-21 02:49:00,46.9,43.8,30.06,WSW,250,0.0,0.0,89,0.00,,,0.00,WeatherDisplay:10.37,2013-03-21 01:49:00,
2013-03-21 02:54:00,47.4,45.2,30.07,South,174,3.5,4.0,92,0.00,CLR,,0.00,WeatherDisplay:10.37,2013-03-21 01:54:00,
2013-03-21 02:59:00,47.4,45.2,30.07,South,174,3.5,4.0,92,0.00,CLR,,0.00,WeatherDisplay:10.37,2013-03-21 01:59:00,
2013-03-21 03:04:00,45.5,43.3,30.07,SSE,149,1.1,1.1,92,0.00,,,0.00,WeatherDisplay:10.37,2013-03-21 02:04:00,
2013-03-21 03:09:00,45.2,43.0,30.07,South,184,2.3,2.3,92,0.00,,,0.00,WeatherDisplay:10.37,2013-03-21 02:09:00,
2013-03-21 03:14:00,44.9,42.7,30.07,SSW,193,3.5,3.5,92,0.00,,,0.00,WeatherDisplay:10.37,2013-03-21 02:14:00,
2013-03-21 03:19:00,47.4,45.2,30.07,South,174,3.5,4.0,92,0.00,CLR,,0.00,WeatherDisplay:10.37,2013-03-21 02:19:00,
2013-03-21 03:24:00,47.4,45.2,30.07,South,174,3.5,4.0,92,0.00,CLR,,0.00,WeatherDisplay:10.37,2013-03-21 02:24:00,
2013-03-21 03:29:00,47.4,45.2,30.07,South,174,3.5,4.0,92,0.00,CLR,,0.00,WeatherDisplay:10.37,2013-03-21 02:29:00,
2013-03-21 03:34:00,47.4,45.2,30.07,South,174,3.5,4.0,92,0.00,CLR,,0.00,WeatherDisplay:10.37,2013-03-21 02:34:00,
2013-03-21 03:39:00,44.7,43.1,30.07,SSE,152,0.0,0.0,94,0.00,,,0.00,WeatherDisplay:10.37,2013-03-21 02:39:00,
2013-03-21 03:44:00,44.9,43.6,30.07,SE,143,0.0,0.0,95,0.00,,,0.00,WeatherDisplay:10.37,2013-03-21 02:44:00,
2013-03-21 03:49:00,47.4,45.2,30.07,South,174,3.5,4.0,92,0.00,CLR,,0.00,WeatherDisplay:10.37,2013-03-21 02:49:00,
2013-03-21 03:54:00,45.3,43.7,30.06,SE,142,0.0,0.0,94,0.00,,,0.00,WeatherDisplay:10.37,2013-03-21 02:54:00,
2013-03-21 03:59:00,44.7,42.8,30.06,NNE,29,2.3,2.3,93,0.00,,,0.00,WeatherDisplay:10.37,2013-03-21 02:59:00,
2013-03-21 04:04:00,43.9,41.7,30.05,NNE,29,3.5,3.5,92,0.00,,,0.00,WeatherDisplay:10.37,2013-03-21 03:04:00,
2013-03-21 04:09:00,47.4,45.2,30.07,South,174,3.5,4.0,92,0.00,CLR,,0.00,WeatherDisplay:10.37,2013-03-21 03:09:00,
2013-03-21 04:14:00,43.6,41.7,30.05,North,5,1.1,0.0,93,0.00,,,0.00,WeatherDisplay:10.37,2013-03-21 03:14:00,
2013-03-21 04:19:00,43.7,41.5,30.05,North,5,3.5,3.5,92,0.00,CLR,,0.00,WeatherDisplay:10.37,2013-03-21 03:19:00,
2013-03-21 04:25:00,43.8,41.6,30.05,North,5,0.0,0.0,92,0.00,,,0.00,WeatherDisplay:10.37,2013-03-21 03:25:00,
2013-03-21 04:30:00,43.9,41.7,30.05,SE,139,0.0,0.0,92,0.00,,,0.00,WeatherDisplay:10.37,2013-03-21 03:30:00,
2013-03-21 04:35:00,43.7,41.5,30.05,North,5,0.0,0.0,92,0.00,,,0.00,WeatherDisplay:10.37,2013-03-21 03:35:00,
2013-03-21 04:40:00,43.7,41.5,30.05,North,5,0.0,0.0,92,0.00,,,0.00,WeatherDisplay:10.37,2013-03-21 03:40:00,
2013-03-21 04:45:00,43.6,41.4,30.05,SSE,163,2.3,2.3,92,0.00,,,0.00,WeatherDisplay:10.37,2013-03-21 03:45:00,
2013-03-21 04:50:00,43.5,41.6,30.05,South,169,3.5,3.5,93,0.00,,,0.00,WeatherDisplay:10.37,2013-03-21 03:50:00,
2013-03-21 04:55:00,43.7,41.5,30.05,North,5,0.0,0.0,92,0.00,,,0.00,WeatherDisplay:10.37,2013-03-21 03:55:00,
2013-03-21 05:00:00,43.1,41.5,30.04,SW,221,3.5,3.5,94,0.00,,,0.00,WeatherDisplay:10.37,2013-03-21 04:00:00,
2013-03-21 05:05:00,43.1,41.8,30.05,South,181,3.5,3.5,95,0.00,,,0.00,WeatherDisplay:10.37,2013-03-21 04:05:00,
2013-03-21 05:10:00,43.7,41.5,30.05,North,5,0.0,0.0,92,0.00,,,0.00,WeatherDisplay:10.37,2013-03-21 04:10:00,
2013-03-21 05:15:00,43.7,41.5,30.05,North,5,0.0,0.0,92,0.00,,,0.00,WeatherDisplay:10.37,2013-03-21 04:15:00,
2013-03-21 05:20:00,42.9,41.6,30.04,South,171,4.0,4.0,95,0.00,,,0.00,WeatherDisplay:10.37,2013-03-21 04:20:00,
2013-03-21 05:25:00,43.7,41.5,30.05,North,5,0.0,0.0,92,0.00,,,0.00,WeatherDisplay:10.37,2013-03-21 04:25:00,
2013-03-21 05:30:00,42.8,41.5,30.05,SW,219,3.5,3.5,95,0.00,,,0.00,WeatherDisplay:10.37,2013-03-21 04:30:00,
2013-03-21 05:35:00,42.5,40.9,30.04,SSW,193,4.0,4.0,94,0.00,,,0.00,WeatherDisplay:10.37,2013-03-21 04:35:00,
2013-03-21 05:40:00,42.3,40.7,30.05,SSE,168,5.8,5.8,94,0.00,,,0.00,WeatherDisplay:10.37,2013-03-21 04:40:00,
2013-03-21 05:45:00,42.1,40.8,30.05,South,188,3.5,3.5,95,0.00,,,0.00,WeatherDisplay:10.37,2013-03-21 04:45:00,
2013-03-21 05:50:00,43.7,41.5,30.05,North,5,0.0,0.0,92,0.00,,,0.00,WeatherDisplay:10.37,2013-03-21 04:50:00,
2013-03-21 05:55:00,42.0,40.9,30.04,SSW,211,3.5,3.5,96,0.00,,,0.00,WeatherDisplay:10.37,2013-03-21 04:55:00,
2013-03-21 06:00:00,41.8,40.5,30.04,SSW,200,3.5,3.5,95,0.00,,,0.00,WeatherDisplay:10.37,2013-03-21 05:00:00,
2013-03-21 06:05:00,43.7,41.5,30.05,North,5,0.0,0.0,92,0.00,,,0.00,WeatherDisplay:10.37,2013-03-21 05:05:00,
2013-03-21 06:10:00,43.7,41.5,30.05,North,5,0.0,0.0,92,0.00,,,0.00,WeatherDisplay:10.37,2013-03-21 05:10:00,
2013-03-21 06:15:00,41.2,39.9,30.03,SSW,202,1.1,1.1,95,0.00,,,0.00,WeatherDisplay:10.37,2013-03-21 05:15:00,
2013-03-21 06:21:00,40.9,39.6,30.04,SSW,207,3.5,3.5,95,0.00,,,0.00,WeatherDisplay:10.37,2013-03-21 05:21:00,
2013-03-21 06:26:00,43.7,41.5,30.05,North,5,0.0,0.0,92,0.00,,,0.00,WeatherDisplay:10.37,2013-03-21 05:26:00,
2013-03-21 06:32:00,43.7,41.5,30.05,North,5,0.0,0.0,92,0.00,,,0.00,WeatherDisplay:10.37,2013-03-21 05:32:00,
2013-03-21 06:37:00,41.2,40.1,30.04,SSE,168,4.0,4.0,96,0.00,,,0.00,WeatherDisplay:10.37,2013-03-21 05:37:00,
2013-03-21 06:42:00,41.5,40.4,30.04,South,190,3.5,3.5,96,0.00,,,0.00,WeatherDisplay:10.37,2013-03-21 05:42:00,
2013-03-21 06:47:00,41.6,40.3,30.04,SSW,200,3.5,3.5,95,0.00,,,0.00,WeatherDisplay:10.37,2013-03-21 05:47:00,
2013-03-21 06:52:00,41.4,40.1,30.04,South,174,3.5,3.5,95,0.00,,,0.00,WeatherDisplay:10.37,2013-03-21 05:52:00,
2013-03-21 06:57:00,41.5,40.4,30.04,SSE,153,2.3,2.3,96,0.00,,,0.00,WeatherDisplay:10.37,2013-03-21 05:57:00,
2013-03-21 07:02:00,41.9,40.8,30.04,SSE,165,2.3,2.3,96,0.00,,,0.00,WeatherDisplay:10.37,2013-03-21 06:02:00,
2013-03-21 07:07:00,41.9,40.6,30.04,SSW,211,2.3,2.3,95,0.00,,,0.00,WeatherDisplay:10.37,2013-03-21 06:07:00,
2013-03-21 07:12:00,41.7,40.4,30.05,South,177,2.3,2.3,95,0.00,,,0.00,WeatherDisplay:10.37,2013-03-21 06:12:00,
2013-03-21 07:17:00,41.7,40.4,30.05,SSE,166,1.1,1.1,95,0.00,,,0.00,WeatherDisplay:10.37,2013-03-21 06:17:00,
2013-03-21 07:22:00,41.7,40.4,30.05,SSW,207,2.3,2.3,95,0.00,,,0.00,WeatherDisplay:10.37,2013-03-21 06:22:00,
2013-03-21 07:27:00,41.9,40.3,30.05,SSW,208,0.0,0.0,94,0.00,,,0.00,WeatherDisplay:10.37,2013-03-21 06:27:00,
2013-03-21 07:32:00,42.0,40.4,30.05,SSW,208,0.0,0.0,94,0.00,,,0.00,WeatherDisplay:10.37,2013-03-21 06:32:00,
2013-03-21 07:37:00,42.1,40.5,30.04,SSW,204,0.0,0.0,94,0.00,,,0.00,WeatherDisplay:10.37,2013-03-21 06:37:00,
2013-03-21 07:42:00,42.8,41.5,30.05,SSW,204,0.0,0.0,95,0.00,,,0.00,WeatherDisplay:10.37,2013-03-21 06:42:00,
2013-03-21 07:47:00,43.5,41.9,30.05,SSW,204,0.0,0.0,94,0.00,,,0.00,WeatherDisplay:10.37,2013-03-21 06:47:00,
2013-03-21 07:52:00,44.1,42.5,30.05,SSW,204,0.0,0.0,94,0.00,,,0.00,WeatherDisplay:10.37,2013-03-21 06:52:00,
2013-03-21 07:57:00,44.8,43.2,30.04,SSW,204,0.0,0.0,94,0.00,,,0.00,WeatherDisplay:10.37,2013-03-21 06:57:00,
2013-03-21 08:02:00,45.2,42.7,30.05,SSW,204,0.0,0.0,91,0.00,,,0.00,WeatherDisplay:10.37,2013-03-21 07:02:00,
2013-03-21 08:07:00,45.4,42.9,30.04,SE,134,0.0,0.0,91,0.00,,,0.00,WeatherDisplay:10.37,2013-03-21 07:07:00,
2013-03-21 08:12:00,46.1,43.6,30.04,SE,134,0.0,0.0,91,0.00,,,0.00,WeatherDisplay:10.37,2013-03-21 07:12:00,
2013-03-21 08:17:00,45.9,42.8,30.05,ENE,74,0.0,0.0,89,0.00,,,0.00,WeatherDisplay:10.37,2013-03-21 07:17:00,
2013-03-21 08:22:00,45.8,43.0,30.05,NNE,27,0.0,0.0,90,0.00,,,0.00,WeatherDisplay:10.37,2013-03-21 07:22:00,
2013-03-21 08:27:00,46.0,43.5,30.04,NNE,17,0.0,0.0,91,0.00,,,0.00,WeatherDisplay:10.37,2013-03-21 07:27:00,
2013-03-21 08:33:00,46.1,43.3,30.05,NNE,16,0.0,0.0,90,0.00,,,0.00,WeatherDisplay:10.37,2013-03-21 07:33:00,
2013-03-21 08:38:00,46.6,44.1,30.05,NNE,16,0.0,0.0,91,0.00,,,0.00,WeatherDisplay:10.37,2013-03-21 07:38:00,
2013-03-21 08:43:00,47.4,44.9,30.05,NNE,16,0.0,0.0,91,0.00,,,0.00,WeatherDisplay:10.37,2013-03-21 07:43:00,
2013-03-21 08:48:00,48.8,46.0,30.05,ENE,73,0.0,0.0,90,0.00,,,0.00,WeatherDisplay:10.37,2013-03-21 07:48:00,
2013-03-21 08:53:00,50.0,46.3,30.05,ESE,108,0.0,0.0,87,0.00,,,0.00,WeatherDisplay:10.37,2013-03-21 07:53:00,
2013-03-21 08:58:00,50.5,45.8,30.05,SSE,162,0.0,0.0,84,0.00,,,0.00,WeatherDisplay:10.37,2013-03-21 07:58:00,
2013-03-21 09:03:00,50.6,45.9,30.05,SW,214,0.0,0.0,84,0.00,,,0.00,WeatherDisplay:10.37,2013-03-21 08:03:00,
2013-03-21 09:08:00,50.8,46.1,30.04,SE,143,0.0,0.0,84,0.00,,,0.00,WeatherDisplay:10.37,2013-03-21 08:08:00,
2013-03-21 09:13:00,51.4,46.7,30.05,SSE,167,0.0,0.0,84,0.00,,,0.00,WeatherDisplay:10.37,2013-03-21 08:13:00,
2013-03-21 09:18:00,51.5,45.9,30.05,WSW,248,0.0,0.0,81,0.00,,,0.00,WeatherDisplay:10.37,2013-03-21 08:18:00,
2013-03-21 09:23:00,51.1,45.5,30.05,West,263,0.0,0.0,81,0.00,,,0.00,WeatherDisplay:10.37,2013-03-21 08:23:00,
2013-03-21 09:28:00,50.8,45.8,30.05,West,278,1.1,0.0,83,0.00,,,0.00,WeatherDisplay:10.37,2013-03-21 08:28:00,
2013-03-21 09:33:00,50.9,46.2,30.05,WNW,288,2.3,2.3,84,0.00,,,0.00,WeatherDisplay:10.37,2013-03-21 08:33:00,
2013-03-21 09:38:00,51.2,46.8,30.04,West,267,2.3,2.3,85,0.00,,,0.00,WeatherDisplay:10.37,2013-03-21 08:38:00,
2013-03-21 09:43:00,51.4,46.4,30.04,WNW,295,3.5,3.5,83,0.00,,,0.00,WeatherDisplay:10.37,2013-03-21 08:43:00,
2013-03-21 09:48:00,51.4,46.7,30.05,WNW,291,3.5,3.5,84,0.00,,,0.00,WeatherDisplay:10.37,2013-03-21 08:48:00,
2013-03-21 09:53:00,51.8,46.8,30.04,WNW,296,2.3,2.3,83,0.00,,,0.00,WeatherDisplay:10.37,2013-03-21 08:53:00,
2013-03-21 09:58:00,52.4,45.7,30.04,West,277,1.1,1.1,78,0.00,,,0.00,WeatherDisplay:10.37,2013-03-21 08:58:00,
2013-03-21 10:03:00,52.9,46.6,30.04,WSW,246,2.3,2.3,79,0.00,,,0.00,WeatherDisplay:10.37,2013-03-21 09:03:00,
2013-03-21 10:08:00,53.6,46.9,30.04,SSW,204,3.5,3.5,78,0.00,,,0.00,WeatherDisplay:10.37,2013-03-21 09:08:00,
2013-03-21 10:13:00,54.3,46.5,30.04,WSW,246,4.0,4.0,75,0.00,,,0.00,WeatherDisplay:10.37,2013-03-21 09:13:00,
2013-03-21 10:18:00,55.1,45.5,30.04,South,179,6.9,6.9,70,0.00,,,0.00,WeatherDisplay:10.37,2013-03-21 09:18:00,
2013-03-21 10:23:00,55.7,44.5,30.04,SSE,158,9.2,9.2,66,0.00,,,0.00,WeatherDisplay:10.37,2013-03-21 09:23:00,
2013-03-21 10:28:00,55.9,45.5,30.04,SSE,150,6.9,6.9,68,0.00,,,0.00,WeatherDisplay:10.37,2013-03-21 09:28:00,
2013-03-21 10:33:00,56.7,45.5,30.04,SSW,208,5.8,5.8,66,0.00,,,0.00,WeatherDisplay:10.37,2013-03-21 09:33:00,
2013-03-21 10:38:00,57.1,45.8,30.04,SE,143,11.5,11.5,66,0.00,,,0.00,WeatherDisplay:10.37,2013-03-21 09:38:00,
2013-03-21 10:43:00,56.9,45.7,30.04,SSW,196,9.2,9.2,66,0.00,,,0.00,WeatherDisplay:10.37,2013-03-21 09:43:00,
2013-03-21 10:48:00,57.0,45.3,30.03,ESE,122,10.4,10.4,65,0.00,,,0.00,WeatherDisplay:10.37,2013-03-21 09:48:00,
2013-03-21 10:53:00,56.8,45.6,30.03,South,174,6.9,6.9,66,0.00,,,0.00,WeatherDisplay:10.37,2013-03-21 09:53:00,
2013-03-21 10:58:00,57.1,45.8,30.03,SSE,166,11.5,11.5,66,0.00,,,0.00,WeatherDisplay:10.37,2013-03-21 09:58:00,
2013-03-21 11:03:00,57.1,46.2,30.03,South,177,8.1,8.1,67,0.00,,,0.00,WeatherDisplay:10.37,2013-03-21 10:03:00,
2013-03-21 11:08:00,57.0,45.3,30.03,East,86,8.1,8.1,65,0.00,,,0.00,WeatherDisplay:10.37,2013-03-21 10:08:00,
2013-03-21 11:13:00,57.1,46.2,30.02,ESE,110,8.1,8.1,67,0.00,,,0.00,WeatherDisplay:10.37,2013-03-21 10:13:00,
2013-03-21 11:18:00,57.1,45.8,30.02,ESE,120,10.4,10.4,66,0.00,,,0.00,WeatherDisplay:10.37,2013-03-21 10:18:00,
2013-03-21 11:23:00,57.2,45.9,30.02,SE,128,11.5,11.5,66,0.00,,,0.00,WeatherDisplay:10.37,2013-03-21 10:23:00,
2013-03-21 11:28:00,57.4,46.5,30.02,SSE,148,8.1,8.1,67,0.00,,,0.00,WeatherDisplay:10.37,2013-03-21 10:28:00,
2013-03-21 11:33:00,57.8,46.9,30.02,ESE,107,7.0,7.0,67,0.00,,,0.00,WeatherDisplay:10.37,2013-03-21 10:33:00,
2013-03-21 11:38:00,58.0,47.1,30.02,SSE,150,11.5,11.5,67,0.00,,,0.00,WeatherDisplay:10.37,2013-03-21 10:38:00,
2013-03-21 11:43:00,57.4,46.9,30.01,SE,139,8.1,8.1,68,0.00,,,0.00,WeatherDisplay:10.37,2013-03-21 10:43:00,
2013-03-21 11:48:00,57.8,48.1,30.01,SSE,153,10.4,10.4,70,0.00,,,0.00,WeatherDisplay:10.37,2013-03-21 10:48:00,
2013-03-21 11:53:00,58.1,48.0,30.01,SE,140,8.1,8.1,69,0.00,,,0.00,WeatherDisplay:10.37,2013-03-21 10:53:00,
2013-03-21 11:58:00,58.2,47.7,30.01,ESE,112,16.1,16.1,68,0.00,,,0.00,WeatherDisplay:10.37,2013-03-21 10:58:00,
2013-03-21 12:03:00,57.7,48.0,30.01,SE,128,13.8,13.8,70,0.00,,,0.00,WeatherDisplay:10.37,2013-03-21 11:03:00,
2013-03-21 12:08:00,57.5,48.2,30.00,ESE,117,13.8,13.8,71,0.00,,,0.00,WeatherDisplay:10.37,2013-03-21 11:08:00,
2013-03-21 12:13:00,57.6,48.6,30.00,SE,138,13.8,13.8,72,0.00,,,0.00,WeatherDisplay:10.37,2013-03-21 11:13:00,
2013-03-21 12:18:00,57.7,48.0,30.00,SE,132,15.0,15.0,70,0.00,,,0.00,WeatherDisplay:10.37,2013-03-21 11:18:00,
2013-03-21 12:23:00,57.6,47.9,30.00,SE,126,11.5,11.5,70,0.00,,,0.00,WeatherDisplay:10.37,2013-03-21 11:23:00,
2013-03-21 12:28:00,57.7,48.7,29.99,SSE,149,12.7,12.7,72,0.00,,,0.00,WeatherDisplay:10.37,2013-03-21 11:28:00,
2013-03-21 12:33:00,57.6,48.3,30.00,SE,129,17.3,17.3,71,0.00,,,0.00,WeatherDisplay:10.37,2013-03-21 11:33:00,
2013-03-21 12:38:00,58.0,48.6,29.99,SE,145,11.5,11.5,71,0.00,,,0.00,WeatherDisplay:10.37,2013-03-21 11:38:00,
2013-03-21 12:44:00,58.4,48.7,29.99,SSE,160,12.0,12.0,70,0.00,,,0.00,WeatherDisplay:10.37,2013-03-21 11:44:00,
2013-03-21 12:49:00,58.7,48.9,29.99,SE,144,11.5,11.5,70,0.00,,,0.00,WeatherDisplay:10.37,2013-03-21 11:49:00,
2013-03-21 12:54:00,58.7,48.6,29.99,SE,129,16.1,16.1,69,0.00,,,0.00,WeatherDisplay:10.37,2013-03-21 11:54:00,
2013-03-21 12:59:00,59.1,48.9,29.98,East,84,11.5,11.5,69,0.00,,,0.00,WeatherDisplay:10.37,2013-03-21 11:59:00,
2013-03-21 13:04:00,58.8,49.4,29.98,East,100,11.5,11.5,71,0.00,,,0.00,WeatherDisplay:10.37,2013-03-21 12:04:00,
2013-03-21 13:09:00,58.4,49.4,29.98,SE,138,13.8,13.8,72,0.00,,,0.00,WeatherDisplay:10.37,2013-03-21 12:09:00,
2013-03-21 13:14:00,58.7,49.7,29.97,ESE,109,11.5,11.5,72,0.00,,,0.00,WeatherDisplay:10.37,2013-03-21 12:14:00,
2013-03-21 13:19:00,59.5,50.1,29.97,SE,124,11.5,11.5,71,0.00,,,0.00,WeatherDisplay:10.37,2013-03-21 12:19:00,
2013-03-21 13:24:00,59.4,50.0,29.97,SSE,159,13.8,13.8,71,0.00,,,0.00,WeatherDisplay:10.37,2013-03-21 12:24:00,
2013-03-21 13:29:00,59.3,49.9,29.96,SE,124,11.5,11.5,71,0.00,,,0.00,WeatherDisplay:10.37,2013-03-21 12:29:00,
2013-03-21 13:34:00,60.0,50.9,29.96,SSE,163,11.5,11.5,72,0.00,,,0.00,WeatherDisplay:10.37,2013-03-21 12:34:00,
2013-03-21 13:39:00,60.0,49.0,29.96,South,190,19.6,19.6,67,0.00,,,0.00,WeatherDisplay:10.37,2013-03-21 12:39:00,
2013-03-21 13:44:00,60.0,49.4,29.95,SSE,163,15.0,15.0,68,0.00,,,0.00,WeatherDisplay:10.37,2013-03-21 12:44:00,
2013-03-21 13:49:00,60.2,48.4,29.95,SE,135,15.0,15.0,65,0.00,,,0.00,WeatherDisplay:10.37,2013-03-21 12:49:00,
2013-03-21 13:54:00,60.1,48.7,29.94,SSW,198,14.0,14.0,66,0.00,,,0.00,WeatherDisplay:10.37,2013-03-21 12:54:00,
2013-03-21 13:59:00,60.4,49.0,29.94,ESE,116,10.4,10.4,66,0.00,,,0.00,WeatherDisplay:10.37,2013-03-21 12:59:00,
2013-03-21 14:04:00,60.8,50.2,29.93,South,183,10.4,10.4,68,0.00,,,0.00,WeatherDisplay:10.37,2013-03-21 13:04:00,
2013-03-21 14:09:00,61.1,49.7,29.93,SE,136,17.0,17.0,66,0.00,,,0.00,WeatherDisplay:10.37,2013-03-21 13:09:00,
2013-03-21 14:14:00,60.4,49.0,29.92,SSE,148,18.4,18.4,66,0.00,,,0.00,WeatherDisplay:10.37,2013-03-21 13:14:00,
2013-03-21 14:19:00,60.3,49.3,29.92,SSE,162,19.6,19.6,67,0.00,,,0.00,WeatherDisplay:10.37,2013-03-21 13:19:00,
2013-03-21 14:24:00,60.2,49.2,29.92,SSE,150,19.6,19.6,67,0.00,,,0.00,WeatherDisplay:10.37,2013-03-21 13:24:00,
2013-03-21 14:29:00,60.1,49.1,29.91,South,174,20.7,20.7,67,0.00,,,0.00,WeatherDisplay:10.37,2013-03-21 13:29:00,
2013-03-21 14:34:00,59.9,49.7,29.91,SSE,164,18.4,18.4,69,0.00,,,0.00,WeatherDisplay:10.37,2013-03-21 13:34:00,
2013-03-21 14:39:00,59.9,49.3,29.91,SE,146,18.4,18.4,68,0.00,,,0.00,WeatherDisplay:10.37,2013-03-21 13:39:00,
2013-03-21 14:44:00,60.1,49.5,29.91,SE,124,19.6,19.6,68,0.00,,,0.00,WeatherDisplay:10.37,2013-03-21 13:44:00,
2013-03-21 14:49:00,60.3,49.3,29.91,SSE,156,16.1,16.1,67,0.00,,,0.00,WeatherDisplay:10.37,2013-03-21 13:49:00,
2013-03-21 14:54:00,60.6,48.8,29.91,SE,140,18.4,18.4,65,0.00,,,0.00,WeatherDisplay:10.37,2013-03-21 13:54:00,
2013-03-21 14:59:00,61.3,49.4,29.90,SSE,155,16.0,16.0,65,0.00,,,0.00,WeatherDisplay:10.37,2013-03-21 13:59:00,
2013-03-21 15:04:00,61.3,48.2,29.90,SSE,155,17.3,17.3,62,0.00,,,0.00,WeatherDisplay:10.37,2013-03-21 14:04:00,
2013-03-21 15:09:00,61.4,48.3,29.90,SSE,167,16.1,16.1,62,0.00,,,0.00,WeatherDisplay:10.37,2013-03-21 14:09:00,
2013-03-21 15:14:00,61.4,48.3,29.90,South,177,18.4,18.4,62,0.00,,,0.00,WeatherDisplay:10.37,2013-03-21 14:14:00,
2013-03-21 15:19:00,61.6,48.0,29.90,South,181,17.3,17.3,61,0.00,,,0.00,WeatherDisplay:10.37,2013-03-21 14:19:00,
2013-03-21 15:24:00,61.5,48.4,29.89,SE,146,19.6,19.6,62,0.00,,,0.00,WeatherDisplay:10.37,2013-03-21 14:24:00,
2013-03-21 15:29:00,61.6,48.0,29.89,SSE,164,18.0,18.0,61,0.00,,,0.00,WeatherDisplay:10.37,2013-03-21 14:29:00,
2013-03-21 15:34:00,61.9,48.3,29.89,SSE,158,16.1,16.1,61,0.00,,,0.00,WeatherDisplay:10.37,2013-03-21 14:34:00,
2013-03-21 15:39:00,62.0,48.0,29.89,SE,145,15.0,15.0,60,0.00,,,0.00,WeatherDisplay:10.37,2013-03-21 14:39:00,
2013-03-21 15:44:00,62.2,49.4,29.89,South,185,13.8,13.8,63,0.00,,,0.00,WeatherDisplay:10.37,2013-03-21 14:44:00,
2013-03-21 15:49:00,62.2,49.9,29.89,SSE,166,12.7,12.7,64,0.00,,,0.00,WeatherDisplay:10.37,2013-03-21 14:49:00,
2013-03-21 15:54:00,62.4,49.2,29.89,South,172,16.1,16.1,62,0.00,,,0.00,WeatherDisplay:10.37,2013-03-21 14:54:00,
2013-03-21 15:59:00,62.6,50.2,29.88,SSE,162,12.7,12.7,64,0.00,,,0.00,WeatherDisplay:10.37,2013-03-21 14:59:00,
2013-03-21 16:04:00,63.3,50.5,29.88,SSE,148,11.5,11.5,63,0.00,,,0.00,WeatherDisplay:10.37,2013-03-21 15:04:00,
2013-03-21 16:09:00,63.5,50.7,29.88,SE,144,12.7,12.7,63,0.00,,,0.00,WeatherDisplay:10.37,2013-03-21 15:09:00,
2013-03-21 16:14:00,63.9,48.8,29.88,SSW,197,11.5,11.5,58,0.00,,,0.00,WeatherDisplay:10.37,2013-03-21 15:14:00,
2013-03-21 16:19:00,64.0,47.0,29.87,WSW,239,10.4,10.4,54,0.00,,,0.00,WeatherDisplay:10.37,2013-03-21 15:19:00,
2013-03-21 16:24:00,64.2,47.7,29.88,SSE,163,13.8,13.8,55,0.00,,,0.00,WeatherDisplay:10.37,2013-03-21 15:24:00,
2013-03-21 16:29:00,64.5,48.0,29.88,SW,235,12.7,12.7,55,0.00,,,0.00,WeatherDisplay:10.37,2013-03-21 15:29:00,
2013-03-21 16:34:00,64.8,47.8,29.88,South,187,11.5,11.5,54,0.00,,,0.00,WeatherDisplay:10.37,2013-03-21 15:34:00,
2013-03-21 16:39:00,64.4,47.4,29.88,SW,218,11.5,11.5,54,0.00,,,0.00,WeatherDisplay:10.37,2013-03-21 15:39:00,
2013-03-21 16:44:00,63.9,47.4,29.88,SSW,211,9.2,9.2,55,0.00,,,0.00,WeatherDisplay:10.37,2013-03-21 15:44:00,
2013-03-21 16:49:00,63.4,47.4,29.88,SSE,155,9.2,9.2,56,0.00,,,0.00,WeatherDisplay:10.37,2013-03-21 15:49:00,
2013-03-21 16:54:00,62.8,47.8,29.88,SSW,200,8.1,8.1,58,0.00,,,0.00,WeatherDisplay:10.37,2013-03-21 15:54:00,
2013-03-21 16:59:00,62.6,48.1,29.88,SSE,160,9.2,9.2,59,0.00,,,0.00,WeatherDisplay:10.37,2013-03-21 15:59:00,
2013-03-21 17:04:00,63.1,48.1,29.88,SSW,212,8.0,8.0,58,0.00,,,0.00,WeatherDisplay:10.37,2013-03-21 16:04:00,
2013-03-21 17:09:00,63.4,47.4,29.88,South,177,11.5,11.5,56,0.00,,,0.00,WeatherDisplay:10.37,2013-03-21 16:09:00,
2013-03-21 17:14:00,63.3,47.8,29.88,SW,215,6.0,6.0,57,0.00,,,0.00,WeatherDisplay:10.37,2013-03-21 16:14:00,
2013-03-21 17:19:00,63.3,47.3,29.87,SSW,208,11.5,11.5,56,0.00,,,0.00,WeatherDisplay:10.37,2013-03-21 16:19:00,
2013-03-21 17:24:00,63.2,47.2,29.87,SSW,207,10.4,10.4,56,0.00,,,0.00,WeatherDisplay:10.37,2013-03-21 16:24:00,
2013-03-21 17:29:00,63.2,46.8,29.87,SW,229,10.4,10.4,55,0.00,,,0.00,WeatherDisplay:10.37,2013-03-21 16:29:00,
2013-03-21 17:34:00,62.9,46.0,29.87,SW,222,11.5,11.5,54,0.00,,,0.00,WeatherDisplay:10.37,2013-03-21 16:34:00,
2013-03-21 17:39:00,62.8,46.4,29.87,WSW,246,10.4,10.4,55,0.00,,,0.00,WeatherDisplay:10.37,2013-03-21 16:39:00,
2013-03-21 17:44:00,62.7,45.8,29.87,SSW,212,11.5,11.5,54,0.00,,,0.00,WeatherDisplay:10.37,2013-03-21 16:44:00,
2013-03-21 17:49:00,62.6,45.7,29.87,SSW,200,10.4,10.4,54,0.00,,,0.00,WeatherDisplay:10.37,2013-03-21 16:49:00,
2013-03-21 17:54:00,62.4,46.0,29.87,South,184,8.1,8.1,55,0.00,,,0.00,WeatherDisplay:10.37,2013-03-21 16:54:00,
2013-03-21 17:59:00,62.2,46.3,29.87,SSW,201,8.1,8.1,56,0.00,,,0.00,WeatherDisplay:10.37,2013-03-21 16:59:00,
2013-03-21 18:04:00,62.2,44.9,29.87,SW,229,16.1,16.1,53,0.00,,,0.00,WeatherDisplay:10.37,2013-03-21 17:04:00,
2013-03-21 18:09:00,62.0,44.2,29.87,SSW,210,11.5,11.5,52,0.00,,,0.00,WeatherDisplay:10.37,2013-03-21 17:09:00,
2013-03-21 18:14:00,61.7,43.9,29.87,South,181,13.8,13.8,52,0.00,,,0.00,WeatherDisplay:10.37,2013-03-21 17:14:00,
2013-03-21 18:19:00,61.3,44.5,29.87,SSW,211,9.2,9.2,54,0.00,,,0.00,WeatherDisplay:10.37,2013-03-21 17:19:00,
2013-03-21 18:24:00,61.1,43.8,29.87,SSW,193,8.1,8.1,53,0.00,,,0.00,WeatherDisplay:10.37,2013-03-21 17:24:00,
2013-03-21 18:29:00,60.8,44.5,29.87,South,176,8.1,8.1,55,0.00,,,0.00,WeatherDisplay:10.37,2013-03-21 17:29:00,
2013-03-21 18:34:00,60.6,44.3,29.87,West,262,4.0,4.0,55,0.00,,,0.00,WeatherDisplay:10.37,2013-03-21 17:34:00,
2013-03-21 18:39:00,60.1,49.5,29.88,NW,319,2.3,2.3,68,0.00,,,0.00,WeatherDisplay:10.37,2013-03-21 17:39:00,
2013-03-21 18:44:00,59.6,49.8,29.88,NW,326,0.0,0.0,70,0.00,,,0.00,WeatherDisplay:10.37,2013-03-21 17:44:00,
2013-03-21 18:49:00,59.2,50.5,29.88,NW,326,0.0,0.0,73,0.00,,,0.00,WeatherDisplay:10.37,2013-03-21 17:49:00,
2013-03-21 18:54:00,58.8,50.9,29.88,NW,326,1.1,0.0,75,0.00,,,0.00,WeatherDisplay:10.37,2013-03-21 17:54:00,
2013-03-21 18:59:00,58.1,48.0,29.88,SSE,153,2.3,2.3,69,0.00,,,0.00,WeatherDisplay:10.37,2013-03-21 17:59:00,
2013-03-21 19:04:00,57.5,47.4,29.88,South,176,0.0,0.0,69,0.00,,,0.00,WeatherDisplay:10.37,2013-03-21 18:04:00,
2013-03-21 19:09:00,57.5,46.2,29.88,WSW,250,1.1,1.1,66,0.00,,,0.00,WeatherDisplay:10.37,2013-03-21 18:09:00,
2013-03-21 19:14:00,57.5,48.2,29.88,WNW,287,1.1,1.1,71,0.00,,,0.00,WeatherDisplay:10.37,2013-03-21 18:14:00,
2013-03-21 19:19:00,57.1,47.0,29.87,WSW,239,1.1,1.1,69,0.00,,,0.00,WeatherDisplay:10.37,2013-03-21 18:19:00,
2013-03-21 19:24:00,56.8,45.6,29.87,WNW,289,1.1,1.1,66,0.00,,,0.00,WeatherDisplay:10.37,2013-03-21 18:24:00,
2013-03-21 19:29:00,56.8,49.7,29.88,North,9,1.1,1.1,77,0.00,,,0.00,WeatherDisplay:10.37,2013-03-21 18:29:00,
2013-03-21 19:35:00,56.5,50.1,29.88,West,264,0.0,0.0,79,0.00,,,0.00,WeatherDisplay:10.37,2013-03-21 18:35:00,
2013-03-21 19:40:00,56.3,50.5,29.88,West,274,0.0,0.0,81,0.00,,,0.00,WeatherDisplay:10.37,2013-03-21 18:40:00,
2013-03-21 19:45:00,56.2,50.1,29.88,WNW,283,0.0,0.0,80,0.00,,,0.00,WeatherDisplay:10.37,2013-03-21 18:45:00,
2013-03-21 19:50:00,56.0,49.2,29.88,SSE,155,0.0,0.0,78,0.00,,,0.00,WeatherDisplay:10.37,2013-03-21 18:50:00,
2013-03-21 19:55:00,55.1,46.6,29.88,SSE,148,2.3,2.3,73,0.00,,,0.00,WeatherDisplay:10.37,2013-03-21 18:55:00,
2013-03-21 20:00:00,54.8,46.3,29.88,SSE,148,1.1,1.1,73,0.00,,,0.00,WeatherDisplay:10.37,2013-03-21 19:00:00,
2013-03-21 20:05:00,54.6,46.5,29.88,SSE,163,2.3,2.3,74,0.00,,,0.00,WeatherDisplay:10.37,2013-03-21 19:05:00,
2013-03-21 20:10:00,54.0,46.6,29.88,South,174,1.1,1.1,76,0.00,,,0.00,WeatherDisplay:10.37,2013-03-21 19:10:00,
2013-03-21 20:15:00,53.7,46.7,29.88,SSE,162,1.1,1.1,77,0.00,,,0.00,WeatherDisplay:10.37,2013-03-21 19:15:00,
2013-03-21 20:20:00,53.5,47.1,29.88,SSW,203,2.3,2.3,79,0.00,,,0.00,WeatherDisplay:10.37,2013-03-21 19:20:00,
2013-03-21 20:25:00,53.4,46.4,29.88,South,190,2.3,2.3,77,0.00,,,0.00,WeatherDisplay:10.37,2013-03-21 19:25:00,
2013-03-21 20:30:00,53.2,45.5,29.89,SSW,204,1.1,1.1,75,0.00,,,0.00,WeatherDisplay:10.37,2013-03-21 19:30:00,
2013-03-21 20:35:00,52.9,45.2,29.88,SSE,155,1.1,1.1,75,0.00,,,0.00,WeatherDisplay:10.37,2013-03-21 19:35:00,
2013-03-21 20:40:00,52.9,45.9,29.88,SSE,152,1.1,1.1,77,0.00,,,0.00,WeatherDisplay:10.37,2013-03-21 19:40:00,
2013-03-21 20:45:00,53.4,45.3,29.88,SSE,153,0.0,0.0,74,0.00,,,0.00,WeatherDisplay:10.37,2013-03-21 19:45:00,
2013-03-21 20:50:00,53.4,45.3,29.88,SSE,153,0.0,0.0,74,0.00,,,0.00,WeatherDisplay:10.37,2013-03-21 19:50:00,
2013-03-21 20:55:00,52.8,46.1,29.88,SSE,152,0.0,0.0,78,0.00,,,0.00,WeatherDisplay:10.37,2013-03-21 19:55:00,
2013-03-21 21:00:00,52.0,46.0,29.88,SSE,152,0.0,0.0,80,0.00,,,0.00,WeatherDisplay:10.37,2013-03-21 20:00:00,
2013-03-21 21:05:00,51.5,45.9,29.88,SSE,153,0.0,0.0,81,0.00,,,0.00,WeatherDisplay:10.37,2013-03-21 20:05:00,
2013-03-21 21:10:00,51.2,45.6,29.88,SE,146,0.0,0.0,81,0.00,,,0.00,WeatherDisplay:10.37,2013-03-21 20:10:00,
2013-03-21 21:15:00,50.2,45.6,29.88,SE,146,0.0,0.0,84,0.00,,,0.00,WeatherDisplay:10.37,2013-03-21 20:15:00,
2013-03-21 21:20:00,49.7,46.0,29.88,SE,145,0.0,0.0,87,0.00,,,0.00,WeatherDisplay:10.37,2013-03-21 20:20:00,
2013-03-21 21:25:00,49.5,45.8,29.88,SE,145,0.0,0.0,87,0.00,,,0.00,WeatherDisplay:10.37,2013-03-21 20:25:00,
2013-03-21 21:30:00,49.5,45.5,29.88,SE,145,0.0,0.0,86,0.00,,,0.00,WeatherDisplay:10.37,2013-03-21 20:30:00,
2013-03-21 21:35:00,49.6,45.3,29.88,SE,145,0.0,0.0,85,0.00,,,0.00,WeatherDisplay:10.37,2013-03-21 20:35:00,
2013-03-21 21:40:00,49.6,45.0,29.88,SE,146,0.0,0.0,84,0.00,,,0.00,WeatherDisplay:10.37,2013-03-21 20:40:00,
2013-03-21 21:45:00,49.6,45.3,29.88,SE,143,0.0,0.0,85,0.00,,,0.00,WeatherDisplay:10.37,2013-03-21 20:45:00,
2013-03-21 21:50:00,49.5,45.2,29.88,North,11,2.3,2.3,85,0.00,,,0.00,WeatherDisplay:10.37,2013-03-21 20:50:00,
2013-03-21 21:55:00,49.6,45.3,29.88,NNE,13,1.1,1.1,85,0.00,,,0.00,WeatherDisplay:10.37,2013-03-21 20:55:00,
2013-03-21 22:00:00,49.7,45.1,29.88,NNE,15,1.1,1.1,84,0.00,,,0.00,WeatherDisplay:10.37,2013-03-21 21:00:00,
2013-03-21 22:05:00,49.7,45.1,29.88,NE,51,0.0,0.0,84,0.00,,,0.00,WeatherDisplay:10.37,2013-03-21 21:05:00,
2013-03-21 22:10:00,49.3,45.3,29.88,NNW,340,2.3,2.3,86,0.00,,,0.00,WeatherDisplay:10.37,2013-03-21 21:10:00,
2013-03-21 22:15:00,48.8,45.1,29.88,NNW,347,1.1,1.1,87,0.00,,,0.00,WeatherDisplay:10.37,2013-03-21 21:15:00,
2013-03-21 22:20:00,48.4,45.0,29.88,North,349,1.1,1.1,88,0.00,,,0.00,WeatherDisplay:10.37,2013-03-21 21:20:00,
2013-03-21 22:25:00,48.1,44.7,29.88,NNE,22,2.3,2.3,88,0.00,,,0.00,WeatherDisplay:10.37,2013-03-21 21:25:00,
2013-03-21 22:30:00,48.0,44.6,29.88,NNE,22,1.1,0.0,88,0.00,,,0.00,WeatherDisplay:10.37,2013-03-21 21:30:00,
2013-03-21 22:35:00,48.5,45.4,29.88,ESE,105,2.3,2.3,89,0.00,,,0.00,WeatherDisplay:10.37,2013-03-21 21:35:00,
2013-03-21 22:40:00,50.0,45.7,29.88,North,5,2.3,2.3,85,0.00,,,0.00,WeatherDisplay:10.37,2013-03-21 21:40:00,
2013-03-21 22:45:00,49.7,46.0,29.87,NE,47,3.5,3.5,87,0.00,,,0.00,WeatherDisplay:10.37,2013-03-21 21:45:00,
2013-03-21 22:50:00,49.4,45.1,29.87,NNE,15,3.5,3.5,85,0.00,,,0.00,WeatherDisplay:10.37,2013-03-21 21:50:00,
2013-03-21 22:55:00,48.8,45.1,29.87,NE,47,2.3,2.3,87,0.00,,,0.00,WeatherDisplay:10.37,2013-03-21 21:55:00,
2013-03-21 23:00:00,49.2,45.2,29.87,NNE,12,2.3,2.3,86,0.00,,,0.00,WeatherDisplay:10.37,2013-03-21 22:00:00,
2013-03-21 23:05:00,48.9,44.9,29.87,NNE,12,2.3,2.3,86,0.00,,,0.00,WeatherDisplay:10.37,2013-03-21 22:05:00,
2013-03-21 23:10:00,48.8,45.1,29.87,NNE,13,0.0,0.0,87,0.00,,,0.00,WeatherDisplay:10.37,2013-03-21 22:10:00,
2013-03-21 23:15:00,49.6,45.6,29.87,NE,49,0.0,0.0,86,0.00,,,0.00,WeatherDisplay:10.37,2013-03-21 22:15:00,
2013-03-21 23:20:00,49.3,45.0,29.87,North,5,1.1,1.1,85,0.00,,,0.00,WeatherDisplay:10.37,2013-03-21 22:20:00,
2013-03-21 23:25:00,48.6,44.6,29.87,NNE,22,2.3,2.3,86,0.00,,,0.00,WeatherDisplay:10.37,2013-03-21 22:25:00,
2013-03-21 23:30:00,48.2,44.5,29.87,North,4,1.1,1.1,87,0.00,,,0.00,WeatherDisplay:10.37,2013-03-21 22:30:00,
2013-03-21 23:35:00,47.9,44.5,29.87,North,4,0.0,0.0,88,0.00,,,0.00,WeatherDisplay:10.37,2013-03-21 22:35:00,
2013-03-21 23:40:00,47.6,44.5,29.87,SSE,162,2.3,2.3,89,0.00,,,0.00,WeatherDisplay:10.37,2013-03-21 22:40:00,
2013-03-21 23:45:00,47.7,44.9,29.87,SSE,162,1.1,1.3,90,0.00,,,0.00,WeatherDisplay:10.37,2013-03-21 22:45:00,
2013-03-21 23:50:00,47.8,44.7,29.87,SE,145,1.1,0.0,89,0.00,,,0.00,WeatherDisplay:10.37,2013-03-21 22:50:00,
2013-03-21 23:55:00,47.7,44.9,29.87,SSE,150,0.0,1.0,90,0.00,,,0.00,WeatherDisplay:10.37,2013-03-21 22:55:00,